Time,TemperatureF,DewpointF,PressureIn,WindDirection,WindDirectionDegrees,WindSpeedMPH,WindSpeedGustMPH,Humidity,HourlyPrecipIn,Conditions,Clouds,dailyrainin,SoftwareType,DateUTC
2013-10-04 00:02:00,69.6,59.4,29.44,SE,129,12.7,13.0,70,0.00,SCT,,0.00,WeatherDisplay:10.37,2013-10-03 23:02:00,
2013-10-04 00:07:00,69.6,59.4,29.44,ESE,106,12.1,12.5,70,0.00,SCT,,0.00,WeatherDisplay:10.37,2013-10-03 23:07:00,
2013-10-04 00:12:00,69.6,59.4,29.44,SE,129,23.0,23.0,70,0.00,SCT,,0.00,WeatherDisplay:10.37,2013-10-03 23:12:00,
2013-10-04 00:17:00,69.6,59.4,29.44,SE,129,15.0,15.0,70,0.00,SCT,,0.00,WeatherDisplay:10.37,2013-10-03 23:17:00,
2013-10-04 00:22:00,69.6,59.4,29.44,SSE,152,10.5,15.9,70,0.00,SCT,,0.00,WeatherDisplay:10.37,2013-10-03 23:22:00,
2013-10-04 00:27:00,69.6,59.4,29.44,SSE,152,10.5,15.9,70,0.00,SCT,,0.00,WeatherDisplay:10.37,2013-10-03 23:27:00,
2013-10-04 00:32:00,69.6,59.4,29.41,SSE,152,10.5,15.9,70,0.00,SCT,,0.00,WeatherDisplay:10.37,2013-10-03 23:32:00,
2013-10-04 00:37:00,69.6,59.4,29.41,SSE,152,17.3,17.3,70,0.00,SCT,,0.00,WeatherDisplay:10.37,2013-10-03 23:37:00,
2013-10-04 00:42:00,69.6,59.4,29.41,SSE,152,17.5,17.5,70,0.00,SCT,,0.00,WeatherDisplay:10.37,2013-10-03 23:42:00,
2013-10-04 00:47:00,69.6,59.4,29.41,SE,129,10.5,13.8,70,0.00,SCT,,0.00,WeatherDisplay:10.37,2013-10-03 23:47:00,
2013-10-04 00:52:00,69.6,59.4,29.41,SE,129,15.4,15.4,70,0.00,SCT,,0.00,WeatherDisplay:10.37,2013-10-03 23:52:00,
2013-10-04 00:57:00,69.6,59.4,29.41,SSE,152,24.2,24.2,70,0.00,SCT,,0.00,WeatherDisplay:10.37,2013-10-03 23:57:00,
2013-10-04 01:02:00,69.6,59.4,29.44,SE,129,18.5,18.5,70,0.00,OVC,,0.00,WeatherDisplay:10.37,2013-10-04 00:02:00,
2013-10-04 01:07:00,69.6,59.4,29.44,SSE,152,20.7,20.7,70,0.00,OVC,,0.00,WeatherDisplay:10.37,2013-10-04 00:07:00,
2013-10-04 01:12:00,69.6,59.4,29.44,SE,129,18.7,18.7,70,0.00,OVC,,0.00,WeatherDisplay:10.37,2013-10-04 00:12:00,
2013-10-04 01:17:00,69.6,59.4,29.44,SSE,152,18.4,18.4,70,0.00,OVC,,0.00,WeatherDisplay:10.37,2013-10-04 00:17:00,
2013-10-04 01:22:00,69.6,59.4,29.44,SE,129,17.3,17.3,70,0.00,OVC,,0.00,WeatherDisplay:10.37,2013-10-04 00:22:00,
2013-10-04 01:27:00,69.6,59.4,29.44,SSE,152,19.4,19.4,70,0.00,OVC,,0.00,WeatherDisplay:10.37,2013-10-04 00:27:00,
2013-10-04 01:32:00,69.6,59.4,29.44,South,174,12.7,12.8,70,0.00,OVC,,0.00,WeatherDisplay:10.37,2013-10-04 00:32:00,
2013-10-04 01:37:00,69.6,59.4,29.44,SSE,152,12.7,16.3,70,0.00,OVC,,0.00,WeatherDisplay:10.37,2013-10-04 00:37:00,
2013-10-04 01:42:00,69.6,59.4,29.44,ESE,106,15.4,15.4,70,0.00,OVC,,0.00,WeatherDisplay:10.37,2013-10-04 00:42:00,
2013-10-04 01:47:00,69.6,59.4,29.44,South,174,12.3,12.3,70,0.00,OVC,,0.00,WeatherDisplay:10.37,2013-10-04 00:47:00,
2013-10-04 01:52:00,69.6,59.4,29.44,South,174,17.3,17.3,70,0.00,OVC,,0.00,WeatherDisplay:10.37,2013-10-04 00:52:00,
2013-10-04 01:57:00,69.6,59.4,29.44,South,174,15.2,15.2,70,0.00,OVC,,0.00,WeatherDisplay:10.37,2013-10-04 00:57:00,
2013-10-04 02:02:00,69.6,59.4,29.44,South,174,12.1,12.1,70,0.00,FEW,,0.00,WeatherDisplay:10.37,2013-10-04 01:02:00,
2013-10-04 02:07:00,69.6,59.4,29.44,South,174,12.1,12.1,70,0.00,FEW,,0.00,WeatherDisplay:10.37,2013-10-04 01:07:00,
2013-10-04 02:12:00,69.6,59.4,29.44,SSE,152,10.4,13.5,70,0.00,FEW,,0.00,WeatherDisplay:10.37,2013-10-04 01:12:00,
2013-10-04 02:17:00,69.6,59.4,29.44,SSW,196,17.3,17.3,70,0.00,FEW,,0.00,WeatherDisplay:10.37,2013-10-04 01:17:00,
2013-10-04 02:22:00,69.6,59.4,29.44,South,174,9.4,9.7,70,0.00,FEW,,0.00,WeatherDisplay:10.37,2013-10-04 01:22:00,
2013-10-04 02:27:00,69.6,59.4,29.44,SSW,196,10.4,10.9,70,0.00,FEW,,0.00,WeatherDisplay:10.37,2013-10-04 01:27:00,
2013-10-04 02:32:00,69.6,59.4,29.41,South,174,10.4,10.4,70,0.00,FEW,,0.00,WeatherDisplay:10.37,2013-10-04 01:32:00,
2013-10-04 02:37:00,69.6,59.4,29.41,SSE,152,13.8,13.8,70,0.00,FEW,,0.00,WeatherDisplay:10.37,2013-10-04 01:37:00,
2013-10-04 02:42:00,69.6,59.4,29.41,SSE,152,12.7,12.7,70,0.00,FEW,,0.00,WeatherDisplay:10.37,2013-10-04 01:42:00,
2013-10-04 02:47:00,69.4,59.2,29.44,West,264,15.0,15.0,70,0.00,FEW,,0.00,WeatherDisplay:10.37,2013-10-04 01:47:00,
2013-10-04 02:52:00,69.4,59.2,29.44,SSW,196,12.7,12.7,70,0.00,FEW,,0.00,WeatherDisplay:10.37,2013-10-04 01:52:00,
2013-10-04 02:57:00,69.4,59.2,29.44,SSW,196,11.8,14.0,70,0.00,FEW,,0.00,WeatherDisplay:10.37,2013-10-04 01:57:00,
2013-10-04 03:02:00,69.4,59.2,29.44,SSW,196,11.8,14.0,70,0.00,CLR,,0.00,WeatherDisplay:10.37,2013-10-04 02:02:00,
2013-10-04 03:07:00,69.4,59.2,29.44,South,174,11.5,11.5,70,0.00,CLR,,0.00,WeatherDisplay:10.37,2013-10-04 02:07:00,
2013-10-04 03:12:00,69.4,59.2,29.44,SSW,196,15.0,15.0,70,0.00,CLR,,0.00,WeatherDisplay:10.37,2013-10-04 02:12:00,
2013-10-04 03:17:00,69.4,59.2,29.47,West,264,11.5,13.8,70,0.00,CLR,,0.00,WeatherDisplay:10.37,2013-10-04 02:17:00,
2013-10-04 03:22:00,69.4,59.2,29.47,SE,129,9.2,9.2,70,0.00,CLR,,0.00,WeatherDisplay:10.37,2013-10-04 02:22:00,
2013-10-04 03:27:00,69.4,59.2,29.47,WSW,242,2.3,6.4,70,0.00,CLR,,0.00,WeatherDisplay:10.37,2013-10-04 02:27:00,
2013-10-04 03:32:00,69.4,59.2,29.47,SSW,196,10.4,10.4,70,0.00,CLR,,0.00,WeatherDisplay:10.37,2013-10-04 02:32:00,
2013-10-04 03:37:00,69.4,59.2,29.47,SSW,196,9.8,9.8,70,0.00,CLR,,0.00,WeatherDisplay:10.37,2013-10-04 02:37:00,
2013-10-04 03:42:00,69.4,59.2,29.47,SSW,196,9.8,9.8,70,0.00,CLR,,0.00,WeatherDisplay:10.37,2013-10-04 02:42:00,
2013-10-04 03:47:00,69.4,59.2,29.47,SSW,196,9.2,9.2,70,0.00,CLR,,0.00,WeatherDisplay:10.37,2013-10-04 02:47:00,
2013-10-04 03:52:00,69.4,59.2,29.47,SSW,196,8.1,8.1,70,0.00,CLR,,0.00,WeatherDisplay:10.37,2013-10-04 02:52:00,
2013-10-04 03:57:00,69.4,59.2,29.47,SSW,196,8.5,8.5,70,0.00,CLR,,0.00,WeatherDisplay:10.37,2013-10-04 02:57:00,
2013-10-04 04:02:00,69.4,59.2,29.47,SSW,196,8.1,8.1,70,0.00,SCT,,0.00,WeatherDisplay:10.37,2013-10-04 03:02:00,
2013-10-04 04:07:00,69.4,59.2,29.47,SSE,152,5.8,5.8,70,0.00,SCT,,0.00,WeatherDisplay:10.37,2013-10-04 03:07:00,
2013-10-04 04:12:00,69.4,59.2,29.47,SSW,196,10.7,10.7,70,0.00,SCT,,0.00,WeatherDisplay:10.37,2013-10-04 03:12:00,
2013-10-04 04:17:00,69.4,59.2,29.50,SSE,152,8.1,8.1,70,0.00,SCT,,0.00,WeatherDisplay:10.37,2013-10-04 03:17:00,
2013-10-04 04:22:00,69.4,59.2,29.50,SW,219,8.5,8.5,70,0.00,SCT,,0.00,WeatherDisplay:10.37,2013-10-04 03:22:00,
2013-10-04 04:27:00,69.4,59.2,29.50,WSW,242,12.3,12.3,70,0.00,SCT,,0.00,WeatherDisplay:10.37,2013-10-04 03:27:00,
2013-10-04 04:32:00,69.4,59.2,29.47,WSW,242,10.5,10.5,70,0.00,SCT,,0.00,WeatherDisplay:10.37,2013-10-04 03:32:00,
2013-10-04 04:37:00,69.4,59.2,29.47,SSE,152,10.4,10.4,70,0.00,SCT,,0.00,WeatherDisplay:10.37,2013-10-04 03:37:00,
2013-10-04 04:42:00,69.4,59.2,29.47,WNW,286,10.4,10.4,70,0.00,SCT,,0.00,WeatherDisplay:10.37,2013-10-04 03:42:00,
2013-10-04 04:47:00,69.4,59.2,29.50,SSW,196,5.8,7.8,70,0.00,SCT,,0.00,WeatherDisplay:10.37,2013-10-04 03:47:00,
2013-10-04 04:52:00,69.4,59.2,29.50,SSW,196,5.6,6.0,70,0.00,SCT,,0.00,WeatherDisplay:10.37,2013-10-04 03:52:00,
2013-10-04 04:57:00,69.4,59.2,29.50,South,174,7.1,7.1,70,0.00,SCT,,0.00,WeatherDisplay:10.37,2013-10-04 03:57:00,
2013-10-04 05:31:00,69.4,59.2,29.50,SSW,196,4.6,4.6,70,0.00,SCT,,0.00,WeatherDisplay:10.37,2013-10-04 04:31:00,
2013-10-04 05:32:00,69.4,59.2,29.50,South,174,6.4,6.4,70,0.00,SCT,,0.00,WeatherDisplay:10.37,2013-10-04 04:32:00,
2013-10-04 05:35:00,69.4,59.2,29.50,SSW,196,4.6,4.6,70,0.00,SCT,,0.00,WeatherDisplay:10.37,2013-10-04 04:35:00,
2013-10-04 05:38:00,69.4,59.2,29.50,SW,219,6.0,6.0,70,0.00,SCT,,0.00,WeatherDisplay:10.37,2013-10-04 04:38:00,
2013-10-04 05:43:00,69.4,59.2,29.50,SSW,196,1.4,3.3,70,0.00,SCT,,0.00,WeatherDisplay:10.37,2013-10-04 04:43:00,
2013-10-04 05:44:00,69.4,59.2,29.50,WSW,242,6.2,6.2,70,0.00,SCT,,0.00,WeatherDisplay:10.37,2013-10-04 04:44:00,
2013-10-04 05:45:00,69.4,59.2,29.50,SSW,196,6.2,6.2,70,0.00,SCT,,0.00,WeatherDisplay:10.37,2013-10-04 04:45:00,
2013-10-04 05:47:00,69.3,59.1,29.50,SSW,196,5.8,5.8,70,0.00,SCT,,0.00,WeatherDisplay:10.37,2013-10-04 04:47:00,
2013-10-04 05:48:00,69.3,59.1,29.50,SSW,196,1.4,3.3,70,0.00,SCT,,0.00,WeatherDisplay:10.37,2013-10-04 04:48:00,
2013-10-04 05:50:00,69.4,59.2,29.50,SW,219,4.6,4.6,70,0.00,SCT,,0.00,WeatherDisplay:10.37,2013-10-04 04:50:00,
2013-10-04 05:52:00,69.4,59.2,29.50,SSW,196,2.3,4.5,70,0.00,SCT,,0.00,WeatherDisplay:10.37,2013-10-04 04:52:00,
2013-10-04 05:55:00,69.3,59.1,29.50,WSW,242,8.1,8.1,70,0.00,SCT,,0.00,WeatherDisplay:10.37,2013-10-04 04:55:00,
2013-10-04 05:57:00,69.3,59.1,29.50,SSW,196,5.9,5.9,70,0.00,SCT,,0.00,WeatherDisplay:10.37,2013-10-04 04:57:00,
2013-10-04 06:00:00,69.3,59.1,29.50,WSW,242,3.5,3.6,70,0.00,SCT,,0.00,WeatherDisplay:10.37,2013-10-04 05:00:00,
2013-10-04 06:04:00,69.3,59.1,29.53,WNW,286,8.1,8.1,70,0.00,SCT,,0.00,WeatherDisplay:10.37,2013-10-04 05:04:00,
2013-10-04 06:05:00,69.3,59.1,29.53,WNW,286,8.1,8.1,70,0.00,SCT,,0.00,WeatherDisplay:10.37,2013-10-04 05:05:00,
2013-10-04 06:06:00,69.3,59.1,29.53,WNW,286,8.1,8.1,70,0.00,SCT,,0.00,WeatherDisplay:10.37,2013-10-04 05:06:00,
2013-10-04 06:10:00,69.3,59.1,29.53,West,264,7.6,7.6,70,0.00,SCT,,0.00,WeatherDisplay:10.37,2013-10-04 05:10:00,
2013-10-04 06:12:00,69.3,59.1,29.53,WNW,286,1.4,1.4,70,0.00,SCT,,0.00,WeatherDisplay:10.37,2013-10-04 05:12:00,
2013-10-04 06:15:00,69.3,59.1,29.53,SSW,196,5.8,5.8,70,0.00,SCT,,0.00,WeatherDisplay:10.37,2013-10-04 05:15:00,
2013-10-04 06:16:00,69.3,59.1,29.53,SSW,196,5.8,5.8,70,0.00,SCT,,0.00,WeatherDisplay:10.37,2013-10-04 05:16:00,
2013-10-04 06:19:00,69.3,59.1,29.56,WNW,286,6.4,6.4,70,0.00,SCT,,0.00,WeatherDisplay:10.37,2013-10-04 05:19:00,
2013-10-04 06:24:00,69.3,59.1,29.56,West,264,6.9,6.9,70,0.00,SCT,,0.00,WeatherDisplay:10.37,2013-10-04 05:24:00,
2013-10-04 06:31:00,69.3,59.1,29.56,WNW,286,5.8,5.8,70,0.00,SCT,,0.00,WeatherDisplay:10.37,2013-10-04 05:31:00,
2013-10-04 06:36:00,69.3,59.1,29.56,WNW,286,6.9,6.9,70,0.00,SCT,,0.00,WeatherDisplay:10.37,2013-10-04 05:36:00,
2013-10-04 06:41:00,69.3,59.1,29.56,West,264,4.6,4.6,70,0.00,SCT,,0.00,WeatherDisplay:10.37,2013-10-04 05:41:00,
2013-10-04 06:46:00,69.3,59.1,29.56,SW,219,3.3,3.3,70,0.00,SCT,,0.00,WeatherDisplay:10.37,2013-10-04 05:46:00,
2013-10-04 06:51:00,69.3,59.1,29.56,WSW,242,3.5,3.5,70,0.00,SCT,,0.00,WeatherDisplay:10.37,2013-10-04 05:51:00,
2013-10-04 06:56:00,69.3,59.1,29.56,West,264,2.3,2.3,70,0.00,SCT,,0.00,WeatherDisplay:10.37,2013-10-04 05:56:00,
2013-10-04 07:01:00,69.3,59.1,29.56,WSW,242,4.6,4.6,70,0.00,SCT,,0.00,WeatherDisplay:10.37,2013-10-04 06:01:00,
2013-10-04 07:06:00,69.3,59.1,29.56,West,264,3.5,3.5,70,0.00,SCT,,0.00,WeatherDisplay:10.37,2013-10-04 06:06:00,
2013-10-04 07:11:00,69.3,59.1,29.56,WSW,242,4.6,4.6,70,0.00,SCT,,0.00,WeatherDisplay:10.37,2013-10-04 06:11:00,
2013-10-04 07:16:00,69.3,59.1,29.56,SSW,196,2.3,2.3,70,0.00,SCT,,0.00,WeatherDisplay:10.37,2013-10-04 06:16:00,
2013-10-04 07:21:00,69.3,59.1,29.56,SSW,196,3.5,3.5,70,0.00,SCT,,0.00,WeatherDisplay:10.37,2013-10-04 06:21:00,
2013-10-04 07:26:00,69.3,59.1,29.56,WSW,242,3.1,3.1,70,0.00,SCT,,0.00,WeatherDisplay:10.37,2013-10-04 06:26:00,
2013-10-04 07:31:00,69.3,59.1,29.56,WSW,242,2.3,2.3,70,0.00,SCT,,0.00,WeatherDisplay:10.37,2013-10-04 06:31:00,
2013-10-04 07:36:00,69.3,59.1,29.59,WSW,242,5.8,5.8,70,0.00,SCT,,0.00,WeatherDisplay:10.37,2013-10-04 06:36:00,
2013-10-04 07:41:00,69.3,59.1,29.59,WSW,242,3.5,3.5,70,0.00,SCT,,0.00,WeatherDisplay:10.37,2013-10-04 06:41:00,
2013-10-04 07:46:00,69.3,59.1,29.59,WNW,286,3.5,3.5,70,0.00,SCT,,0.00,WeatherDisplay:10.37,2013-10-04 06:46:00,
2013-10-04 07:51:00,69.3,59.1,29.59,SSW,196,4.6,4.6,70,0.00,SCT,,0.00,WeatherDisplay:10.37,2013-10-04 06:51:00,
2013-10-04 07:56:00,69.3,59.1,29.59,SW,219,3.5,3.5,70,0.00,SCT,,0.00,WeatherDisplay:10.37,2013-10-04 06:56:00,
2013-10-04 08:01:00,69.3,59.1,29.59,WSW,242,3.5,3.5,70,0.00,SCT,,0.00,WeatherDisplay:10.37,2013-10-04 07:01:00,
2013-10-04 08:06:00,69.3,59.1,29.62,WSW,242,4.0,4.0,70,0.00,SCT,,0.00,WeatherDisplay:10.37,2013-10-04 07:06:00,
2013-10-04 08:11:00,69.3,59.1,29.62,WSW,242,2.3,2.3,70,0.00,SCT,,0.00,WeatherDisplay:10.37,2013-10-04 07:11:00,
2013-10-04 08:16:00,69.3,59.1,29.62,South,174,4.6,4.6,70,0.00,SCT,,0.00,WeatherDisplay:10.37,2013-10-04 07:16:00,
2013-10-04 08:21:00,69.3,59.1,29.62,WSW,242,9.2,9.2,70,0.00,SCT,,0.00,WeatherDisplay:10.37,2013-10-04 07:21:00,
2013-10-04 08:26:00,69.3,59.1,29.62,SW,219,3.5,3.5,70,0.00,SCT,,0.00,WeatherDisplay:10.37,2013-10-04 07:26:00,
2013-10-04 08:31:00,69.3,59.1,29.62,West,264,4.6,4.6,70,0.00,SCT,,0.00,WeatherDisplay:10.37,2013-10-04 07:31:00,
2013-10-04 08:36:00,69.3,59.1,29.62,WNW,286,8.1,8.1,70,0.00,SCT,,0.00,WeatherDisplay:10.37,2013-10-04 07:36:00,
2013-10-04 08:41:00,69.3,59.1,29.62,WSW,242,8.5,8.5,70,0.00,SCT,,0.00,WeatherDisplay:10.37,2013-10-04 07:41:00,
2013-10-04 08:46:00,69.3,59.1,29.62,West,264,9.2,9.2,70,0.00,SCT,,0.00,WeatherDisplay:10.37,2013-10-04 07:46:00,
2013-10-04 08:51:00,69.3,59.1,29.59,WSW,242,4.6,4.6,70,0.00,SCT,,0.00,WeatherDisplay:10.37,2013-10-04 07:51:00,
2013-10-04 08:56:00,69.3,59.1,29.59,WSW,242,1.6,1.6,70,0.00,SCT,,0.00,WeatherDisplay:10.37,2013-10-04 07:56:00,
2013-10-04 09:01:00,69.3,59.1,29.59,WSW,242,3.5,3.5,70,0.00,SCT,,0.00,WeatherDisplay:10.37,2013-10-04 08:01:00,
2013-10-04 09:06:00,69.3,59.1,29.62,SSE,152,5.8,5.8,70,0.00,SCT,,0.00,WeatherDisplay:10.37,2013-10-04 08:06:00,
2013-10-04 09:11:00,69.3,59.1,29.62,SSW,196,4.6,4.6,70,0.00,SCT,,0.00,WeatherDisplay:10.37,2013-10-04 08:11:00,
2013-10-04 09:16:00,69.3,59.1,29.62,NW,309,5.8,5.8,70,0.00,SCT,,0.00,WeatherDisplay:10.37,2013-10-04 08:16:00,
2013-10-04 09:21:00,69.3,59.1,29.62,WSW,242,5.9,5.9,70,0.00,SCT,,0.00,WeatherDisplay:10.37,2013-10-04 08:21:00,
2013-10-04 09:26:00,69.3,59.1,29.62,WSW,242,5.8,5.8,70,0.00,SCT,,0.00,WeatherDisplay:10.37,2013-10-04 08:26:00,
2013-10-04 09:31:00,69.3,59.1,29.62,WNW,286,4.6,4.6,70,0.00,SCT,,0.00,WeatherDisplay:10.37,2013-10-04 08:31:00,
2013-10-04 09:36:00,69.3,59.1,29.62,SSW,196,2.9,2.9,70,0.00,SCT,,0.00,WeatherDisplay:10.37,2013-10-04 08:36:00,
2013-10-04 09:41:00,69.3,59.1,29.62,SSW,196,9.0,9.0,70,0.00,SCT,,0.00,WeatherDisplay:10.37,2013-10-04 08:41:00,
2013-10-04 09:46:00,69.3,59.1,29.62,West,264,4.6,4.6,70,0.00,SCT,,0.00,WeatherDisplay:10.37,2013-10-04 08:46:00,
2013-10-04 09:51:00,69.4,59.2,29.65,WNW,286,6.9,6.9,70,0.00,SCT,,0.00,WeatherDisplay:10.37,2013-10-04 08:51:00,
2013-10-04 09:56:00,69.4,59.2,29.65,SW,219,4.6,4.6,70,0.00,SCT,,0.00,WeatherDisplay:10.37,2013-10-04 08:56:00,
2013-10-04 10:01:00,69.4,59.2,29.65,SSW,196,6.4,6.4,70,0.00,BKN,,0.00,WeatherDisplay:10.37,2013-10-04 09:01:00,
2013-10-04 10:06:00,69.4,59.2,29.65,South,174,5.8,5.8,70,0.00,BKN,,0.00,WeatherDisplay:10.37,2013-10-04 09:06:00,
2013-10-04 10:11:00,69.4,59.2,29.65,WSW,242,8.1,8.1,70,0.00,BKN,,0.00,WeatherDisplay:10.37,2013-10-04 09:11:00,
2013-10-04 10:16:00,69.4,59.2,29.65,West,264,6.9,6.9,70,0.00,BKN,,0.00,WeatherDisplay:10.37,2013-10-04 09:16:00,
2013-10-04 10:21:00,69.4,59.2,29.68,SSW,196,6.9,6.9,70,0.00,BKN,,0.00,WeatherDisplay:10.37,2013-10-04 09:21:00,
2013-10-04 10:26:00,69.4,59.2,29.68,SW,219,5.8,6.0,70,0.00,BKN,,0.00,WeatherDisplay:10.37,2013-10-04 09:26:00,
2013-10-04 10:31:00,69.4,59.2,29.68,WNW,286,9.2,9.2,70,0.00,BKN,,0.00,WeatherDisplay:10.37,2013-10-04 09:31:00,
2013-10-04 10:36:00,69.4,59.2,29.68,SSW,196,3.5,3.5,70,0.00,BKN,,0.00,WeatherDisplay:10.37,2013-10-04 09:36:00,
2013-10-04 10:41:00,69.4,59.2,29.68,SE,129,5.8,5.9,70,0.00,BKN,,0.00,WeatherDisplay:10.37,2013-10-04 09:41:00,
2013-10-04 10:46:00,69.4,59.2,29.68,SSW,196,2.4,2.9,70,0.00,BKN,,0.00,WeatherDisplay:10.37,2013-10-04 09:46:00,
2013-10-04 10:51:00,69.4,59.2,29.71,WSW,242,4.7,4.9,70,0.00,BKN,,0.00,WeatherDisplay:10.37,2013-10-04 09:51:00,
2013-10-04 10:56:00,69.4,59.2,29.71,SSE,152,6.9,6.9,70,0.00,BKN,,0.00,WeatherDisplay:10.37,2013-10-04 09:56:00,
2013-10-04 11:01:00,69.4,59.2,29.71,SSW,196,4.6,4.6,70,0.00,BKN,,0.00,WeatherDisplay:10.37,2013-10-04 10:01:00,
2013-10-04 11:06:00,69.6,59.4,29.68,SSE,152,4.6,4.6,70,0.00,BKN,,0.00,WeatherDisplay:10.37,2013-10-04 10:06:00,
2013-10-04 11:11:00,69.6,59.4,29.68,SSE,152,8.1,8.1,70,0.00,BKN,,0.00,WeatherDisplay:10.37,2013-10-04 10:11:00,
2013-10-04 11:16:00,69.6,59.4,29.68,SW,219,7.6,7.6,70,0.00,BKN,,0.00,WeatherDisplay:10.37,2013-10-04 10:16:00,
2013-10-04 11:21:00,69.6,59.4,29.68,SSW,196,12.7,12.7,70,0.00,BKN,,0.00,WeatherDisplay:10.37,2013-10-04 10:21:00,
2013-10-04 11:26:00,69.8,59.6,29.68,WSW,242,8.1,8.1,70,0.00,BKN,,0.00,WeatherDisplay:10.37,2013-10-04 10:26:00,
2013-10-04 11:31:00,69.8,59.6,29.68,WSW,242,8.1,8.1,70,0.00,BKN,,0.00,WeatherDisplay:10.37,2013-10-04 10:31:00,
2013-10-04 11:36:00,70.0,59.7,29.68,SW,219,10.4,10.4,70,0.00,BKN,,0.00,WeatherDisplay:10.37,2013-10-04 10:36:00,
2013-10-04 11:41:00,70.0,59.7,29.68,WSW,242,5.8,5.8,70,0.00,BKN,,0.00,WeatherDisplay:10.37,2013-10-04 10:41:00,
2013-10-04 11:46:00,70.2,59.9,29.68,SSE,152,8.1,8.1,70,0.00,BKN,,0.00,WeatherDisplay:10.37,2013-10-04 10:46:00,
2013-10-04 11:51:00,70.2,59.9,29.68,South,174,5.8,5.8,70,0.00,BKN,,0.00,WeatherDisplay:10.37,2013-10-04 10:51:00,
2013-10-04 11:56:00,70.3,60.1,29.68,SSE,152,7.1,7.1,70,0.00,BKN,,0.00,WeatherDisplay:10.37,2013-10-04 10:56:00,
2013-10-04 12:01:00,70.3,60.1,29.68,SSW,196,15.0,15.0,70,0.00,SCT,,0.00,WeatherDisplay:10.37,2013-10-04 11:01:00,
2013-10-04 12:06:00,70.3,60.1,29.71,SSE,152,10.5,10.5,70,0.00,SCT,,0.00,WeatherDisplay:10.37,2013-10-04 11:06:00,
2013-10-04 12:11:00,70.5,60.3,29.71,NE,39,8.1,8.1,70,0.00,SCT,,0.00,WeatherDisplay:10.37,2013-10-04 11:11:00,
2013-10-04 12:16:00,70.5,60.3,29.71,South,174,10.9,10.9,70,0.00,SCT,,0.00,WeatherDisplay:10.37,2013-10-04 11:16:00,
2013-10-04 12:21:00,70.5,60.3,29.71,SSW,196,5.9,7.1,70,0.00,SCT,,0.00,WeatherDisplay:10.37,2013-10-04 11:21:00,
2013-10-04 12:26:00,70.5,60.3,29.71,South,174,8.1,8.1,70,0.00,SCT,,0.00,WeatherDisplay:10.37,2013-10-04 11:26:00,
2013-10-04 12:31:00,70.5,60.3,29.71,SSW,196,6.9,7.1,70,0.00,SCT,,0.00,WeatherDisplay:10.37,2013-10-04 11:31:00,
2013-10-04 12:36:00,70.5,60.3,29.71,WSW,242,9.7,9.7,70,0.00,SCT,,0.00,WeatherDisplay:10.37,2013-10-04 11:36:00,
2013-10-04 12:41:00,70.5,60.3,29.71,South,174,12.7,12.7,70,0.00,SCT,,0.00,WeatherDisplay:10.37,2013-10-04 11:41:00,
2013-10-04 12:46:00,70.5,60.3,29.71,SW,219,8.1,8.1,70,0.00,SCT,,0.00,WeatherDisplay:10.37,2013-10-04 11:46:00,
2013-10-04 12:51:00,70.5,60.3,29.74,South,174,8.1,8.1,70,0.00,SCT,,0.00,WeatherDisplay:10.37,2013-10-04 11:51:00,
2013-10-04 12:56:00,70.7,60.4,29.74,SSE,152,9.2,9.2,70,0.00,SCT,,0.00,WeatherDisplay:10.37,2013-10-04 11:56:00,
2013-10-04 13:01:00,70.7,60.4,29.74,SW,219,8.1,8.1,70,0.00,SCT,,0.00,WeatherDisplay:10.37,2013-10-04 12:01:00,
2013-10-04 13:06:00,70.7,60.0,29.74,South,174,8.1,8.1,69,0.00,SCT,,0.00,WeatherDisplay:10.37,2013-10-04 12:06:00,
2013-10-04 13:11:00,70.7,60.0,29.74,SSW,196,15.0,15.0,69,0.00,SCT,,0.00,WeatherDisplay:10.37,2013-10-04 12:11:00,
2013-10-04 13:16:00,70.7,60.0,29.74,SSW,196,12.7,12.7,69,0.00,SCT,,0.00,WeatherDisplay:10.37,2013-10-04 12:16:00,
2013-10-04 13:21:00,70.7,60.0,29.74,SSE,152,12.7,12.7,69,0.00,SCT,,0.00,WeatherDisplay:10.37,2013-10-04 12:21:00,
2013-10-04 13:26:00,70.9,60.6,29.74,SSW,196,11.5,11.5,70,0.00,SCT,,0.00,WeatherDisplay:10.37,2013-10-04 12:26:00,
2013-10-04 13:31:00,70.9,60.6,29.74,SSE,152,15.0,15.0,70,0.00,SCT,,0.00,WeatherDisplay:10.37,2013-10-04 12:31:00,
2013-10-04 13:36:00,70.9,60.6,29.74,SSW,196,11.5,11.5,70,0.00,SCT,,0.00,WeatherDisplay:10.37,2013-10-04 12:36:00,
2013-10-04 13:41:00,71.1,60.8,29.74,SW,219,10.4,10.4,70,0.00,SCT,,0.00,WeatherDisplay:10.37,2013-10-04 12:41:00,
2013-10-04 13:46:00,71.1,60.8,29.74,South,174,12.7,12.7,70,0.00,SCT,,0.00,WeatherDisplay:10.37,2013-10-04 12:46:00,
2013-10-04 13:51:00,71.2,61.0,29.74,SSW,196,10.4,10.4,70,0.00,SCT,,0.00,WeatherDisplay:10.37,2013-10-04 12:51:00,
2013-10-04 13:56:00,71.2,61.0,29.74,SW,219,11.5,11.5,70,0.00,SCT,,0.00,WeatherDisplay:10.37,2013-10-04 12:56:00,
2013-10-04 14:01:00,71.4,61.1,29.74,SSW,196,8.1,8.1,70,0.00,BKN,,0.00,WeatherDisplay:10.37,2013-10-04 13:01:00,
2013-10-04 14:06:00,71.4,61.1,29.74,SSW,196,3.5,6.0,70,0.00,BKN,,0.00,WeatherDisplay:10.37,2013-10-04 13:06:00,
2013-10-04 14:11:00,71.6,60.9,29.74,South,174,8.1,8.1,69,0.00,BKN,,0.00,WeatherDisplay:10.37,2013-10-04 13:11:00,
2013-10-04 14:16:00,71.6,60.9,29.74,SW,219,6.9,6.9,69,0.00,BKN,,0.00,WeatherDisplay:10.37,2013-10-04 13:16:00,
2013-10-04 14:21:00,71.8,61.1,29.74,WSW,242,11.5,11.5,69,0.00,BKN,,0.00,WeatherDisplay:10.37,2013-10-04 13:21:00,
2013-10-04 14:26:00,71.8,61.1,29.74,South,174,13.8,13.8,69,0.00,BKN,,0.00,WeatherDisplay:10.37,2013-10-04 13:26:00,
2013-10-04 14:31:00,71.8,61.1,29.74,SSW,196,12.8,12.8,69,0.00,BKN,,0.00,WeatherDisplay:10.37,2013-10-04 13:31:00,
2013-10-04 14:36:00,71.8,61.1,29.74,South,174,10.2,10.2,69,0.00,BKN,,0.00,WeatherDisplay:10.37,2013-10-04 13:36:00,
2013-10-04 14:41:00,71.8,61.1,29.74,SW,219,11.5,11.5,69,0.00,BKN,,0.00,WeatherDisplay:10.37,2013-10-04 13:41:00,
2013-10-04 14:46:00,72.0,61.2,29.74,South,174,10.4,10.4,69,0.00,BKN,,0.00,WeatherDisplay:10.37,2013-10-04 13:46:00,
2013-10-04 14:51:00,72.0,61.2,29.74,SSW,196,9.2,9.2,69,0.00,BKN,,0.00,WeatherDisplay:10.37,2013-10-04 13:51:00,
2013-10-04 14:56:00,72.0,61.2,29.74,SSE,152,6.9,6.9,69,0.00,BKN,,0.00,WeatherDisplay:10.37,2013-10-04 13:56:00,
2013-10-04 15:01:00,72.0,61.2,29.74,SSE,152,8.1,8.1,69,0.00,SCT,,0.00,WeatherDisplay:10.37,2013-10-04 14:01:00,
2013-10-04 15:06:00,72.0,61.2,29.74,South,174,5.8,5.8,69,0.00,SCT,,0.00,WeatherDisplay:10.37,2013-10-04 14:06:00,
2013-10-04 15:11:00,72.0,61.2,29.74,SSE,152,6.9,6.9,69,0.00,SCT,,0.00,WeatherDisplay:10.37,2013-10-04 14:11:00,
2013-10-04 15:16:00,72.0,61.2,29.74,South,174,3.5,3.6,69,0.00,SCT,,0.00,WeatherDisplay:10.37,2013-10-04 14:16:00,
2013-10-04 15:21:00,72.0,61.2,29.74,South,174,3.1,3.1,69,0.00,SCT,,0.00,WeatherDisplay:10.37,2013-10-04 14:21:00,
2013-10-04 15:26:00,72.0,61.2,29.74,WNW,286,3.5,3.5,69,0.00,SCT,,0.00,WeatherDisplay:10.37,2013-10-04 14:26:00,
2013-10-04 15:31:00,72.0,61.2,29.74,SSW,196,5.8,5.8,69,0.00,SCT,,0.00,WeatherDisplay:10.37,2013-10-04 14:31:00,
2013-10-04 15:36:00,72.0,61.2,29.74,WSW,242,8.5,8.5,69,0.00,SCT,,0.00,WeatherDisplay:10.37,2013-10-04 14:36:00,
2013-10-04 15:41:00,72.1,61.4,29.74,SW,219,8.1,8.1,69,0.00,SCT,,0.00,WeatherDisplay:10.37,2013-10-04 14:41:00,
2013-10-04 15:46:00,72.1,61.4,29.74,South,174,4.6,4.6,69,0.00,SCT,,0.00,WeatherDisplay:10.37,2013-10-04 14:46:00,
2013-10-04 15:51:00,72.1,61.4,29.74,South,174,4.6,4.6,69,0.00,SCT,,0.00,WeatherDisplay:10.37,2013-10-04 14:51:00,
2013-10-04 15:56:00,72.1,61.4,29.74,WNW,286,5.8,5.8,69,0.00,SCT,,0.00,WeatherDisplay:10.37,2013-10-04 14:56:00,
2013-10-04 16:01:00,72.3,61.6,29.74,West,264,3.8,3.8,69,0.00,SCT,,0.00,WeatherDisplay:10.37,2013-10-04 15:01:00,
2013-10-04 16:06:00,72.3,61.6,29.74,WSW,242,3.5,3.5,69,0.00,SCT,,0.00,WeatherDisplay:10.37,2013-10-04 15:06:00,
2013-10-04 16:11:00,72.3,61.6,29.74,West,264,7.1,7.1,69,0.00,SCT,,0.00,WeatherDisplay:10.37,2013-10-04 15:11:00,
2013-10-04 16:16:00,72.3,61.6,29.74,WNW,286,10.4,10.4,69,0.00,SCT,,0.00,WeatherDisplay:10.37,2013-10-04 15:16:00,
2013-10-04 16:17:00,72.3,61.6,29.74,WNW,286,3.8,6.2,69,0.00,SCT,,0.00,WeatherDisplay:10.37,2013-10-04 15:17:00,
2013-10-04 16:22:00,72.3,61.6,29.74,WNW,286,5.8,5.8,69,0.00,SCT,,0.00,WeatherDisplay:10.37,2013-10-04 15:22:00,
2013-10-04 16:27:00,72.3,61.6,29.74,WSW,242,4.7,4.7,69,0.00,SCT,,0.00,WeatherDisplay:10.37,2013-10-04 15:27:00,
2013-10-04 16:32:00,72.3,61.6,29.74,WNW,286,3.5,4.0,69,0.00,SCT,,0.00,WeatherDisplay:10.37,2013-10-04 15:32:00,
2013-10-04 16:37:00,72.3,61.6,29.74,WNW,286,5.8,5.8,69,0.00,SCT,,0.00,WeatherDisplay:10.37,2013-10-04 15:37:00,
2013-10-04 16:42:00,72.3,61.6,29.74,WNW,286,4.6,4.7,69,0.00,SCT,,0.00,WeatherDisplay:10.37,2013-10-04 15:42:00,
2013-10-04 16:47:00,72.3,61.6,29.74,WNW,286,3.5,6.4,69,0.00,SCT,,0.00,WeatherDisplay:10.37,2013-10-04 15:47:00,
2013-10-04 16:52:00,72.3,61.6,29.74,WNW,286,4.6,4.6,69,0.00,SCT,,0.00,WeatherDisplay:10.37,2013-10-04 15:52:00,
2013-10-04 16:57:00,72.3,61.6,29.74,West,264,4.9,4.9,69,0.00,SCT,,0.00,WeatherDisplay:10.37,2013-10-04 15:57:00,
2013-10-04 17:02:00,72.3,61.6,29.74,West,264,4.9,4.9,69,0.00,SCT,,0.00,WeatherDisplay:10.37,2013-10-04 16:02:00,
2013-10-04 17:07:00,72.3,61.6,29.74,West,264,4.7,4.7,69,0.00,SCT,,0.00,WeatherDisplay:10.37,2013-10-04 16:07:00,
2013-10-04 17:12:00,72.3,61.6,29.74,West,264,8.1,8.1,69,0.00,SCT,,0.00,WeatherDisplay:10.37,2013-10-04 16:12:00,
2013-10-04 17:17:00,72.3,61.6,29.74,WNW,286,2.6,2.6,69,0.00,SCT,,0.00,WeatherDisplay:10.37,2013-10-04 16:17:00,
2013-10-04 17:22:00,72.3,61.6,29.74,SSW,196,2.3,2.3,69,0.00,SCT,,0.00,WeatherDisplay:10.37,2013-10-04 16:22:00,
2013-10-04 17:27:00,72.3,61.6,29.74,West,264,5.8,5.8,69,0.00,SCT,,0.00,WeatherDisplay:10.37,2013-10-04 16:27:00,
2013-10-04 17:32:00,72.3,61.6,29.74,WSW,242,4.6,4.6,69,0.00,SCT,,0.00,WeatherDisplay:10.37,2013-10-04 16:32:00,
2013-10-04 17:37:00,72.5,61.7,29.74,SSE,152,3.5,3.5,69,0.00,SCT,,0.00,WeatherDisplay:10.37,2013-10-04 16:37:00,
2013-10-04 17:42:00,72.5,61.7,29.74,WNW,286,3.1,4.0,69,0.00,SCT,,0.00,WeatherDisplay:10.37,2013-10-04 16:42:00,
2013-10-04 17:47:00,72.3,61.6,29.77,West,264,4.6,4.6,69,0.00,SCT,,0.00,WeatherDisplay:10.37,2013-10-04 16:47:00,
2013-10-04 17:52:00,72.5,61.7,29.77,West,264,0.0,0.9,69,0.00,SCT,,0.00,WeatherDisplay:10.37,2013-10-04 16:52:00,
2013-10-04 17:57:00,72.3,61.6,29.77,WNW,286,3.6,3.6,69,0.00,SCT,,0.00,WeatherDisplay:10.37,2013-10-04 16:57:00,
2013-10-04 18:02:00,72.3,61.6,29.77,WNW,286,2.3,2.3,69,0.00,SCT,,0.00,WeatherDisplay:10.37,2013-10-04 17:02:00,
2013-10-04 18:07:00,72.3,61.6,29.77,West,264,1.2,1.2,69,0.00,SCT,,0.00,WeatherDisplay:10.37,2013-10-04 17:07:00,
2013-10-04 18:12:00,72.3,61.6,29.77,WSW,242,3.1,3.1,69,0.00,SCT,,0.00,WeatherDisplay:10.37,2013-10-04 17:12:00,
2013-10-04 18:17:00,72.3,61.6,29.77,West,264,1.2,3.8,69,0.00,SCT,,0.00,WeatherDisplay:10.37,2013-10-04 17:17:00,
2013-10-04 18:22:00,72.3,61.6,29.77,West,264,4.6,4.6,69,0.00,SCT,,0.00,WeatherDisplay:10.37,2013-10-04 17:22:00,
2013-10-04 18:27:00,72.3,61.6,29.77,WSW,242,2.4,2.4,69,0.00,SCT,,0.00,WeatherDisplay:10.37,2013-10-04 17:27:00,
2013-10-04 18:32:00,72.3,61.6,29.80,WNW,286,0.0,1.6,69,0.00,SCT,,0.00,WeatherDisplay:10.37,2013-10-04 17:32:00,
2013-10-04 18:37:00,72.3,61.6,29.80,SW,219,2.6,2.6,69,0.00,SCT,,0.00,WeatherDisplay:10.37,2013-10-04 17:37:00,
2013-10-04 19:02:00,72.3,61.6,29.83,WSW,242,0.0,0.0,69,0.00,BKN,,0.00,WeatherDisplay:10.37,2013-10-04 18:02:00,
2013-10-04 19:07:00,72.3,61.6,29.83,WSW,242,0.0,0.0,69,0.00,BKN,,0.00,WeatherDisplay:10.37,2013-10-04 18:07:00,
2013-10-04 19:12:00,72.1,61.4,29.83,WSW,242,0.0,0.0,69,0.00,BKN,,0.00,WeatherDisplay:10.37,2013-10-04 18:12:00,
2013-10-04 19:17:00,72.1,61.4,29.80,WSW,242,0.0,0.9,69,0.00,BKN,,0.00,WeatherDisplay:10.37,2013-10-04 18:17:00,
2013-10-04 19:22:00,72.0,61.2,29.80,West,264,0.0,0.0,69,0.00,BKN,,0.00,WeatherDisplay:10.37,2013-10-04 18:22:00,
2013-10-04 19:27:00,72.0,61.2,29.80,West,264,0.0,0.0,69,0.00,BKN,,0.00,WeatherDisplay:10.37,2013-10-04 18:27:00,
2013-10-04 19:32:00,71.8,61.1,29.77,West,264,0.0,0.0,69,0.00,BKN,,0.00,WeatherDisplay:10.37,2013-10-04 18:32:00,
2013-10-04 19:37:00,71.8,61.1,29.77,West,264,0.0,0.0,69,0.00,BKN,,0.00,WeatherDisplay:10.37,2013-10-04 18:37:00,
2013-10-04 19:42:00,71.8,61.1,29.77,SSE,152,0.0,0.0,69,0.00,BKN,,0.00,WeatherDisplay:10.37,2013-10-04 18:42:00,
2013-10-04 19:47:00,71.6,60.9,29.77,SE,129,0.0,0.0,69,0.00,BKN,,0.00,WeatherDisplay:10.37,2013-10-04 18:47:00,
2013-10-04 19:52:00,71.6,60.9,29.77,ESE,106,0.0,0.0,69,0.00,BKN,,0.00,WeatherDisplay:10.37,2013-10-04 18:52:00,
2013-10-04 19:57:00,71.6,60.9,29.77,ESE,106,0.0,0.0,69,0.00,BKN,,0.00,WeatherDisplay:10.37,2013-10-04 18:57:00,
2013-10-04 20:02:00,71.4,61.1,29.80,North,354,0.0,0.0,70,0.00,BKN,,0.00,WeatherDisplay:10.37,2013-10-04 19:02:00,
2013-10-04 20:07:00,71.4,61.1,29.80,North,354,0.0,0.0,70,0.00,BKN,,0.00,WeatherDisplay:10.37,2013-10-04 19:07:00,
2013-10-04 20:12:00,71.4,61.1,29.80,North,354,0.0,0.0,70,0.00,BKN,,0.00,WeatherDisplay:10.37,2013-10-04 19:12:00,
2013-10-04 20:17:00,71.2,61.0,29.80,SSW,196,2.3,2.3,70,0.00,BKN,,0.00,WeatherDisplay:10.37,2013-10-04 19:17:00,
2013-10-04 20:22:00,71.2,61.0,29.80,West,264,0.0,0.0,70,0.00,BKN,,0.00,WeatherDisplay:10.37,2013-10-04 19:22:00,
2013-10-04 20:27:00,71.2,61.0,29.80,WSW,242,2.9,2.9,70,0.00,BKN,,0.00,WeatherDisplay:10.37,2013-10-04 19:27:00,
2013-10-04 20:32:00,71.1,60.8,29.80,WSW,242,2.3,2.4,70,0.00,BKN,,0.00,WeatherDisplay:10.37,2013-10-04 19:32:00,
2013-10-04 20:37:00,71.1,60.8,29.80,SSW,196,1.6,2.2,70,0.00,BKN,,0.00,WeatherDisplay:10.37,2013-10-04 19:37:00,
2013-10-04 20:42:00,71.1,60.8,29.80,WSW,242,2.3,2.3,70,0.00,BKN,,0.00,WeatherDisplay:10.37,2013-10-04 19:42:00,
2013-10-04 20:47:00,70.9,60.6,29.83,SSW,196,4.6,4.6,70,0.00,BKN,,0.00,WeatherDisplay:10.37,2013-10-04 19:47:00,
2013-10-04 20:52:00,70.9,60.6,29.83,WSW,242,4.6,0.0,70,0.00,BKN,,0.00,WeatherDisplay:10.37,2013-10-04 19:52:00,
2013-10-04 20:57:00,70.9,60.6,29.83,WSW,242,0.0,0.0,70,0.00,BKN,,0.00,WeatherDisplay:10.37,2013-10-04 19:57:00,
2013-10-04 21:02:00,70.9,60.6,29.83,WSW,242,0.0,0.0,70,0.00,SCT,,0.00,WeatherDisplay:10.37,2013-10-04 20:02:00,
2013-10-04 21:07:00,70.7,60.4,29.83,WSW,242,0.0,0.0,70,0.00,SCT,,0.00,WeatherDisplay:10.37,2013-10-04 20:07:00,
2013-10-04 21:12:00,70.7,60.4,29.83,SSW,196,0.0,2.0,70,0.00,SCT,,0.00,WeatherDisplay:10.37,2013-10-04 20:12:00,
2013-10-04 21:17:00,70.7,60.4,29.83,SSW,196,2.3,2.3,70,0.00,SCT,,0.00,WeatherDisplay:10.37,2013-10-04 20:17:00,
2013-10-04 21:22:00,70.7,60.4,29.83,SSW,196,0.0,0.0,70,0.00,SCT,,0.00,WeatherDisplay:10.37,2013-10-04 20:22:00,
2013-10-04 21:27:00,70.5,60.3,29.83,SSW,196,2.6,2.6,70,0.00,SCT,,0.00,WeatherDisplay:10.37,2013-10-04 20:27:00,
2013-10-04 21:32:00,70.5,60.3,29.83,SSW,196,2.6,2.6,70,0.00,SCT,,0.00,WeatherDisplay:10.37,2013-10-04 20:32:00,
2013-10-04 21:37:00,70.5,60.3,29.83,WNW,286,2.4,2.4,70,0.00,SCT,,0.00,WeatherDisplay:10.37,2013-10-04 20:37:00,
2013-10-04 21:42:00,70.5,60.3,29.83,WSW,242,1.2,1.2,70,0.00,SCT,,0.00,WeatherDisplay:10.37,2013-10-04 20:42:00,
2013-10-04 21:47:00,70.3,60.1,29.83,WSW,242,1.6,2.2,70,0.00,SCT,,0.00,WeatherDisplay:10.37,2013-10-04 20:47:00,
2013-10-04 21:52:00,70.3,60.1,29.83,WSW,242,1.6,2.2,70,0.00,SCT,,0.00,WeatherDisplay:10.37,2013-10-04 20:52:00,
2013-10-04 21:57:00,70.3,60.1,29.83,WSW,242,1.6,2.2,70,0.00,SCT,,0.00,WeatherDisplay:10.37,2013-10-04 20:57:00,
2013-10-04 22:02:00,70.3,60.1,29.83,WSW,242,2.3,2.3,70,0.00,SCT,,0.00,WeatherDisplay:10.37,2013-10-04 21:02:00,
2013-10-04 22:07:00,70.3,60.1,29.83,WSW,242,1.2,1.2,70,0.00,SCT,,0.00,WeatherDisplay:10.37,2013-10-04 21:07:00,
2013-10-04 22:12:00,70.2,59.9,29.83,WSW,242,1.2,1.2,70,0.00,SCT,,0.00,WeatherDisplay:10.37,2013-10-04 21:12:00,
2013-10-04 22:17:00,70.2,59.9,29.83,WSW,242,2.3,2.3,70,0.00,SCT,,0.00,WeatherDisplay:10.37,2013-10-04 21:17:00,
2013-10-04 22:22:00,70.2,59.9,29.83,WSW,242,1.2,1.2,70,0.00,SCT,,0.00,WeatherDisplay:10.37,2013-10-04 21:22:00,
2013-10-04 22:27:00,70.2,59.9,29.83,West,264,2.3,0.0,70,0.00,SCT,,0.00,WeatherDisplay:10.37,2013-10-04 21:27:00,
2013-10-04 22:32:00,70.0,59.7,29.85,West,264,3.6,3.6,70,0.00,SCT,,0.00,WeatherDisplay:10.37,2013-10-04 21:32:00,
2013-10-04 22:37:00,70.0,59.7,29.85,West,264,1.6,1.6,70,0.00,SCT,,0.00,WeatherDisplay:10.37,2013-10-04 21:37:00,
2013-10-04 22:42:00,70.0,59.7,29.85,West,264,2.4,3.1,70,0.00,SCT,,0.00,WeatherDisplay:10.37,2013-10-04 21:42:00,
2013-10-04 22:47:00,70.0,59.7,29.85,West,264,2.4,3.1,70,0.00,SCT,,0.00,WeatherDisplay:10.37,2013-10-04 21:47:00,
2013-10-04 22:52:00,70.0,59.7,29.85,WSW,242,2.3,2.4,70,0.00,SCT,,0.00,WeatherDisplay:10.37,2013-10-04 21:52:00,
2013-10-04 22:57:00,69.8,59.6,29.85,WSW,242,2.3,2.4,70,0.00,SCT,,0.00,WeatherDisplay:10.37,2013-10-04 21:57:00,
2013-10-04 23:02:00,69.8,59.6,29.85,WSW,242,2.3,2.4,70,0.00,SCT,,0.00,WeatherDisplay:10.37,2013-10-04 22:02:00,
2013-10-04 23:07:00,69.8,59.6,29.85,WSW,242,2.3,2.3,70,0.00,SCT,,0.00,WeatherDisplay:10.37,2013-10-04 22:07:00,
2013-10-04 23:12:00,69.8,59.6,29.85,WSW,242,2.6,2.6,70,0.00,SCT,,0.00,WeatherDisplay:10.37,2013-10-04 22:12:00,
2013-10-04 23:17:00,69.8,59.6,29.85,SSW,196,0.0,1.4,70,0.00,SCT,,0.00,WeatherDisplay:10.37,2013-10-04 22:17:00,
2013-10-04 23:22:00,69.6,59.4,29.85,WSW,242,0.0,2.2,70,0.00,SCT,,0.00,WeatherDisplay:10.37,2013-10-04 22:22:00,
2013-10-04 23:27:00,69.6,59.4,29.85,WSW,242,0.0,2.2,70,0.00,SCT,,0.00,WeatherDisplay:10.37,2013-10-04 22:27:00,
2013-10-04 23:32:00,69.6,59.4,29.83,WSW,242,1.2,1.2,70,0.00,SCT,,0.00,WeatherDisplay:10.37,2013-10-04 22:32:00,
2013-10-04 23:37:00,69.6,59.4,29.83,WSW,242,0.0,0.0,70,0.00,SCT,,0.00,WeatherDisplay:10.37,2013-10-04 22:37:00,
2013-10-04 23:42:00,69.6,59.4,29.83,WSW,242,0.0,0.0,70,0.00,SCT,,0.00,WeatherDisplay:10.37,2013-10-04 22:42:00,
2013-10-04 23:47:00,69.4,59.2,29.85,WSW,242,0.0,0.0,70,0.00,SCT,,0.00,WeatherDisplay:10.37,2013-10-04 22:47:00,
2013-10-04 23:52:00,69.4,59.2,29.85,WSW,242,0.0,0.0,70,0.00,SCT,,0.00,WeatherDisplay:10.37,2013-10-04 22:52:00,
2013-10-04 23:57:00,69.4,59.2,29.85,WSW,242,0.0,0.0,70,0.00,SCT,,0.00,WeatherDisplay:10.37,2013-10-04 22:57:00,